Marshall, Missouri
Current Conditions -  °F | °C
As of 4:53 AM on Thursday 23 Oct 2014 (Local Time) from KDMO Reporting Station
Broken Clouds Broken Clouds  
Wind Chill: 55°   Ceiling: 4200
Heat Index: 55°   Visibility: 10mi
Dew Point: 46°   Wind: 10mph
Humidity: 72%   Direction: 190°S
Pressure: 30.15"   Gusts: NA
Location:  39.12°N, 93.19°W
Report Text: KDMO 230953Z AUTO 19009KT 10SM BKN042 BKN080 13/08 A3015 RMK AO2 SLP206 T01280078
Loading
Personal Weather Stations






























Interactive Weather Map
Tropical Storm Tracking
New forecast layout! Learn more

10-Day Weather Forecast

Advertisements
Track Severe Weather on mobile